Time;durP1;ratioP1;P1;durP2;ratioP2;P2;SDS_P1;SDS_P2;PMS_P1;PMS_P2;Temp;Humidity;BMP_temperature;BMP_pressure;BME280_temperature;BME280_humidity;BME280_pressure;Samples;Min_cycle;Max_cycle;Signal;HPM_P1;HPM_P2
2021/07/21 00:00:37;;;;;;;;;;;18.90;99.90;;;;;;5049402;28;19987;-70
2021/07/21 00:03:03;;;;;;;;;;;18.90;99.90;;;;;;5067018;28;20011;-69
2021/07/21 00:05:34;;;;;;;;;;;18.90;99.90;;;;;;5068367;28;20010;-69
2021/07/21 00:08:02;;;;;;;;;;;18.80;99.90;;;;;;5068608;28;20482;-69
2021/07/21 00:10:30;;;;;;;;;;;18.80;99.90;;;;;;5066661;28;19908;-69
2021/07/21 00:15:44;;;;;;;;;;;18.80;99.90;;;;;;5061482;28;19943;-69
2021/07/21 00:18:25;;;;;;;;;;;18.90;99.90;;;;;;5047802;28;19965;-69
2021/07/21 00:20:51;;;;;;;;;;;18.90;99.90;;;;;;5067150;28;19959;-69
2021/07/21 00:23:17;;;;;;;;;;;18.90;99.90;;;;;;5067555;28;19940;-69
2021/07/21 00:25:42;;;;;;;;;;;18.90;99.90;;;;;;5064798;28;19923;-68
2021/07/21 00:28:08;;;;;;;;;;;18.90;99.90;;;;;;5063961;28;19957;-68
2021/07/21 00:30:36;;;;;;;;;;;18.90;99.90;;;;;;5068136;28;19908;-68
2021/07/21 00:33:12;;;;;;;;;;;18.80;99.90;;;;;;5067360;28;19985;-68
2021/07/21 00:35:40;;;;;;;;;;;18.80;99.90;;;;;;5066871;28;19920;-68
2021/07/21 00:38:06;;;;;;;;;;;18.80;99.90;;;;;;5067886;28;19908;-69
2021/07/21 00:40:32;;;;;;;;;;;18.80;99.90;;;;;;5067931;28;19966;-71
2021/07/21 00:42:58;;;;;;;;;;;18.80;99.90;;;;;;5055755;28;19931;-71
2021/07/21 00:45:23;;;;;;;;;;;18.70;99.90;;;;;;5062634;28;20300;-71
2021/07/21 00:47:51;;;;;;;;;;;18.70;99.90;;;;;;5059704;28;19908;-70
2021/07/21 00:50:17;;;;;;;;;;;18.70;99.90;;;;;;5067554;28;20391;-68
2021/07/21 00:52:50;;;;;;;;;;;18.70;99.90;;;;;;5049105;28;19952;-68
2021/07/21 00:55:20;;;;;;;;;;;18.70;99.90;;;;;;5070376;28;19913;-68
2021/07/21 00:57:46;;;;;;;;;;;18.70;99.90;;;;;;5050740;28;19927;-68
2021/07/21 01:00:14;;;;;;;;;;;18.70;99.90;;;;;;5072138;28;19913;-69
2021/07/21 01:02:46;;;;;;;;;;;18.70;99.90;;;;;;5067032;28;19935;-68
2021/07/21 01:05:20;;;;;;;;;;;18.70;99.90;;;;;;5052438;28;20216;-69
2021/07/21 01:07:47;;;;;;;;;;;18.70;99.90;;;;;;5054211;28;19958;-68
2021/07/21 01:10:13;;;;;;;;;;;18.60;99.90;;;;;;5071289;28;19988;-69
2021/07/21 01:12:40;;;;;;;;;;;18.60;99.90;;;;;;5069971;28;20356;-69
2021/07/21 01:15:09;;;;;;;;;;;18.60;99.90;;;;;;5065297;28;20314;-69
2021/07/21 01:17:37;;;;;;;;;;;18.60;99.90;;;;;;5051633;28;19958;-69
2021/07/21 01:20:21;;;;;;;;;;;18.60;99.90;;;;;;5067136;28;19998;-69
2021/07/21 01:22:51;;;;;;;;;;;18.60;99.90;;;;;;5070815;28;19946;-69
2021/07/21 01:25:25;;;;;;;;;;;18.60;99.90;;;;;;5070646;28;19912;-69
2021/07/21 01:27:57;;;;;;;;;;;18.60;99.90;;;;;;5048570;28;19909;-69
2021/07/21 01:30:25;;;;;;;;;;;18.60;99.90;;;;;;5066056;28;20331;-69
2021/07/21 01:32:53;;;;;;;;;;;18.60;99.90;;;;;;5058894;28;20274;-69
2021/07/21 01:35:48;;;;;;;;;;;18.60;99.90;;;;;;5051482;28;20043;-69
2021/07/21 01:38:18;;;;;;;;;;;18.60;99.90;;;;;;5006181;28;19908;-69
2021/07/21 01:40:48;;;;;;;;;;;18.70;99.90;;;;;;5069392;28;19908;-69
2021/07/21 01:43:19;;;;;;;;;;;18.70;99.90;;;;;;5070221;28;20304;-69
2021/07/21 01:45:48;;;;;;;;;;;18.60;99.90;;;;;;5069220;28;19986;-68
2021/07/21 01:48:17;;;;;;;;;;;18.60;99.90;;;;;;5051986;28;19908;-69
2021/07/21 01:50:44;;;;;;;;;;;18.60;99.90;;;;;;5061383;28;19938;-69
2021/07/21 01:53:10;;;;;;;;;;;18.60;99.90;;;;;;5050073;28;20089;-69
2021/07/21 01:55:36;;;;;;;;;;;18.70;99.90;;;;;;5041100;28;19999;-69
2021/07/21 01:58:02;;;;;;;;;;;18.70;99.90;;;;;;5050752;28;19905;-69
2021/07/21 02:00:33;;;;;;;;;;;18.70;99.90;;;;;;5050781;28;20008;-69
2021/07/21 02:03:01;;;;;;;;;;;18.70;99.90;;;;;;5053704;28;19905;-69
2021/07/21 02:05:27;;;;;;;;;;;18.70;99.90;;;;;;5070275;28;20273;-69
2021/07/21 02:07:54;;;;;;;;;;;18.60;99.90;;;;;;5070556;28;19916;-69
2021/07/21 02:10:21;;;;;;;;;;;18.60;99.90;;;;;;5064263;28;19912;-69
2021/07/21 02:12:49;;;;;;;;;;;18.60;99.90;;;;;;5050673;28;20035;-69
2021/07/21 02:15:17;;;;;;;;;;;18.60;99.90;;;;;;5057464;28;19904;-69
2021/07/21 02:17:43;;;;;;;;;;;18.60;99.90;;;;;;5064465;28;20350;-69
2021/07/21 02:20:09;;;;;;;;;;;18.60;99.90;;;;;;5058109;28;19919;-69
2021/07/21 02:22:35;;;;;;;;;;;18.60;99.90;;;;;;5069870;28;19909;-69
2021/07/21 02:25:01;;;;;;;;;;;18.50;99.90;;;;;;5069617;28;19938;-69
2021/07/21 02:27:34;;;;;;;;;;;18.50;99.90;;;;;;5056269;28;19911;-69
2021/07/21 02:30:00;;;;;;;;;;;18.50;99.90;;;;;;5051270;28;19931;-69
2021/07/21 02:32:29;;;;;;;;;;;18.50;99.90;;;;;;5069635;28;19957;-69
2021/07/21 02:34:57;;;;;;;;;;;18.40;99.90;;;;;;5066321;28;19965;-69
2021/07/21 02:37:24;;;;;;;;;;;18.40;99.90;;;;;;5065478;28;20344;-69
2021/07/21 02:39:53;;;;;;;;;;;18.50;99.90;;;;;;5069493;28;19947;-69
2021/07/21 02:42:20;;;;;;;;;;;18.50;99.90;;;;;;5070060;28;20003;-69
2021/07/21 02:44:52;;;;;;;;;;;18.60;99.90;;;;;;5060618;28;20318;-69
2021/07/21 02:47:18;;;;;;;;;;;18.60;99.90;;;;;;5065106;28;19999;-69
2021/07/21 02:49:47;;;;;;;;;;;18.60;99.90;;;;;;5067651;28;20015;-69
2021/07/21 02:52:32;;;;;;;;;;;18.60;99.90;;;;;;5046131;28;20322;-69
2021/07/21 02:55:05;;;;;;;;;;;18.60;99.90;;;;;;5042978;28;19913;-69
2021/07/21 02:57:36;;;;;;;;;;;18.40;99.90;;;;;;5051493;28;19909;-69
2021/07/21 03:00:16;;;;;;;;;;;18.40;99.90;;;;;;5068092;28;19915;-69
2021/07/21 03:02:42;;;;;;;;;;;18.40;99.90;;;;;;5046241;28;19908;-69
2021/07/21 03:05:14;;;;;;;;;;;18.50;99.90;;;;;;5050352;28;19957;-69
2021/07/21 03:07:44;;;;;;;;;;;18.50;99.90;;;;;;5049696;28;20039;-69
2021/07/21 03:10:13;;;;;;;;;;;18.50;99.90;;;;;;5032061;28;19908;-69
2021/07/21 03:12:42;;;;;;;;;;;18.50;99.90;;;;;;5047942;28;19908;-69
2021/07/21 03:15:13;;;;;;;;;;;18.50;99.90;;;;;;5069130;28;19926;-69
2021/07/21 03:17:39;;;;;;;;;;;18.50;99.90;;;;;;5063164;28;19909;-69
2021/07/21 03:20:06;;;;;;;;;;;18.50;99.90;;;;;;5068962;28;20019;-69
2021/07/21 03:22:32;;;;;;;;;;;18.50;99.90;;;;;;5060489;28;19995;-69
2021/07/21 03:24:58;;;;;;;;;;;18.50;99.90;;;;;;5062778;28;20269;-69
2021/07/21 03:27:24;;;;;;;;;;;18.40;99.90;;;;;;5068720;28;19908;-69
2021/07/21 03:29:57;;;;;;;;;;;18.40;99.90;;;;;;5068589;28;20036;-69
2021/07/21 03:32:24;;;;;;;;;;;18.30;99.90;;;;;;5062505;28;20334;-69
2021/07/21 03:34:53;;;;;;;;;;;18.40;99.90;;;;;;5060723;28;19942;-69
2021/07/21 03:37:25;;;;;;;;;;;18.40;99.90;;;;;;5068559;28;20317;-69
2021/07/21 03:39:56;;;;;;;;;;;18.40;99.90;;;;;;5035939;28;20380;-69
2021/07/21 03:42:24;;;;;;;;;;;18.40;99.90;;;;;;5049202;28;20288;-69
2021/07/21 03:44:50;;;;;;;;;;;18.40;99.90;;;;;;5064523;28;19912;-69
2021/07/21 03:47:36;;;;;;;;;;;18.40;99.90;;;;;;5068654;28;19962;-69
2021/07/21 03:50:03;;;;;;;;;;;18.40;99.90;;;;;;5050534;28;19947;-69
2021/07/21 03:52:29;;;;;;;;;;;18.30;99.90;;;;;;5065400;28;20339;-69
2021/07/21 03:54:55;;;;;;;;;;;18.40;99.90;;;;;;5068183;28;20030;-69
2021/07/21 03:57:24;;;;;;;;;;;18.40;99.90;;;;;;5067987;28;19931;-69
2021/07/21 03:59:53;;;;;;;;;;;18.40;99.90;;;;;;5050562;28;20004;-69
2021/07/21 04:02:18;;;;;;;;;;;18.40;99.90;;;;;;5040281;28;19908;-69
2021/07/21 04:04:48;;;;;;;;;;;18.30;99.90;;;;;;5050519;28;20248;-69
2021/07/21 04:07:16;;;;;;;;;;;18.30;99.90;;;;;;5046472;28;19935;-69
2021/07/21 04:09:46;;;;;;;;;;;18.30;99.90;;;;;;5048691;28;19995;-69
2021/07/21 04:12:16;;;;;;;;;;;18.30;99.90;;;;;;5062569;28;20345;-69
2021/07/21 04:14:42;;;;;;;;;;;18.30;99.90;;;;;;5068305;28;20041;-69
2021/07/21 04:17:08;;;;;;;;;;;18.30;99.90;;;;;;5063467;28;19924;-69
2021/07/21 04:19:37;;;;;;;;;;;18.30;99.90;;;;;;5038340;28;19912;-69
2021/07/21 04:22:03;;;;;;;;;;;18.30;99.90;;;;;;5063076;28;19934;-69
2021/07/21 04:24:29;;;;;;;;;;;18.30;99.90;;;;;;5049242;28;19915;-69
2021/07/21 04:26:54;;;;;;;;;;;18.40;99.90;;;;;;5058257;28;19909;-69
2021/07/21 04:29:24;;;;;;;;;;;18.40;99.90;;;;;;5064792;28;19948;-69
2021/07/21 04:31:52;;;;;;;;;;;18.40;99.90;;;;;;5060780;28;19954;-69
2021/07/21 04:34:19;;;;;;;;;;;18.40;99.90;;;;;;5075929;28;19908;-69
2021/07/21 04:36:47;;;;;;;;;;;18.30;99.90;;;;;;5075899;28;19912;-69
2021/07/21 04:39:14;;;;;;;;;;;18.40;99.90;;;;;;5067024;28;19962;-69
2021/07/21 04:41:39;;;;;;;;;;;18.40;99.90;;;;;;5059119;28;19915;-69
2021/07/21 04:44:05;;;;;;;;;;;18.40;99.90;;;;;;5074831;28;19908;-69
2021/07/21 04:46:31;;;;;;;;;;;18.40;99.90;;;;;;5056895;28;19912;-68
2021/07/21 04:48:57;;;;;;;;;;;18.40;99.90;;;;;;5062174;28;19967;-69
2021/07/21 04:51:23;;;;;;;;;;;18.40;99.90;;;;;;5071861;28;19908;-69
2021/07/21 04:53:52;;;;;;;;;;;18.40;99.90;;;;;;5085609;22;20319;-65
2021/07/21 04:56:23;;;;;;;;;;;18.50;99.90;;;;;;5049071;28;20266;-65
2021/07/21 04:58:48;;;;;;;;;;;18.40;99.90;;;;;;5053794;28;19922;-65
2021/07/21 05:01:14;;;;;;;;;;;18.40;99.90;;;;;;5054141;28;20300;-65
2021/07/21 05:03:40;;;;;;;;;;;18.40;99.90;;;;;;5034093;28;20293;-65
2021/07/21 05:06:05;;;;;;;;;;;18.40;99.90;;;;;;5041905;28;20003;-65
2021/07/21 05:08:33;;;;;;;;;;;18.50;99.90;;;;;;5043882;28;19909;-65
2021/07/21 05:10:58;;;;;;;;;;;18.50;99.90;;;;;;5033999;28;20330;-65
2021/07/21 05:13:24;;;;;;;;;;;18.60;99.90;;;;;;5051697;28;19911;-65
2021/07/21 05:15:49;;;;;;;;;;;18.50;99.90;;;;;;5053259;28;20014;-65
2021/07/21 05:18:15;;;;;;;;;;;18.50;99.90;;;;;;5053621;28;20011;-65
2021/07/21 05:20:41;;;;;;;;;;;18.50;99.90;;;;;;5045814;28;19919;-65
2021/07/21 05:23:09;;;;;;;;;;;18.50;99.90;;;;;;5033723;28;19988;-65
2021/07/21 05:25:41;;;;;;;;;;;18.50;99.90;;;;;;5036979;28;19913;-65
2021/07/21 05:28:07;;;;;;;;;;;18.60;99.90;;;;;;5053186;28;19915;-65
2021/07/21 05:30:35;;;;;;;;;;;18.60;99.90;;;;;;5042358;28;19913;-65
2021/07/21 05:33:00;;;;;;;;;;;18.50;99.90;;;;;;5053845;28;19904;-66
2021/07/21 05:35:28;;;;;;;;;;;18.50;99.90;;;;;;5054399;28;19974;-65
2021/07/21 05:37:55;;;;;;;;;;;18.50;99.90;;;;;;5054191;28;19970;-65
2021/07/21 05:40:20;;;;;;;;;;;18.50;99.90;;;;;;5046011;28;19924;-65
2021/07/21 05:42:46;;;;;;;;;;;18.50;99.90;;;;;;5053892;28;19909;-66
2021/07/21 05:45:14;;;;;;;;;;;18.50;99.90;;;;;;5035541;28;19961;-66
2021/07/21 05:47:39;;;;;;;;;;;18.60;99.90;;;;;;5057171;28;20035;-66
2021/07/21 05:50:07;;;;;;;;;;;18.60;99.90;;;;;;5043052;28;20035;-65
2021/07/21 05:52:36;;;;;;;;;;;18.70;99.90;;;;;;5052502;28;19909;-65
2021/07/21 05:55:03;;;;;;;;;;;18.70;99.90;;;;;;5050695;28;19986;-65
2021/07/21 05:57:29;;;;;;;;;;;18.80;99.90;;;;;;5033685;28;20365;-65
2021/07/21 05:59:57;;;;;;;;;;;18.70;99.90;;;;;;5033297;28;19912;-65
2021/07/21 06:02:23;;;;;;;;;;;18.60;99.90;;;;;;5048069;28;19905;-65
2021/07/21 06:04:49;;;;;;;;;;;18.60;99.90;;;;;;5043667;28;19912;-65
2021/07/21 06:07:15;;;;;;;;;;;18.60;99.90;;;;;;5052313;28;20408;-65
2021/07/21 06:09:40;;;;;;;;;;;18.50;99.90;;;;;;5047899;28;19992;-65
2021/07/21 06:12:06;;;;;;;;;;;18.50;99.90;;;;;;5047652;28;19915;-66
2021/07/21 06:14:32;;;;;;;;;;;18.60;99.90;;;;;;5024523;28;19917;-66
2021/07/21 06:16:58;;;;;;;;;;;18.60;99.90;;;;;;5028127;28;20369;-66
2021/07/21 06:19:24;;;;;;;;;;;18.70;99.90;;;;;;5047659;28;19927;-65
2021/07/21 06:21:49;;;;;;;;;;;18.70;99.90;;;;;;5040228;28;19909;-65
2021/07/21 06:24:15;;;;;;;;;;;18.70;99.90;;;;;;5051892;28;19915;-65
2021/07/21 06:26:41;;;;;;;;;;;18.70;99.90;;;;;;5051382;28;20430;-65
2021/07/21 06:29:07;;;;;;;;;;;18.70;99.90;;;;;;5042664;28;19915;-66
2021/07/21 06:31:33;;;;;;;;;;;18.60;99.90;;;;;;5046692;28;20452;-65
2021/07/21 06:33:58;;;;;;;;;;;18.60;99.90;;;;;;5047668;28;19912;-66
2021/07/21 06:36:24;;;;;;;14.27;12.77;;;18.60;99.90;;;;;;5046527;28;24528;-66
2021/07/21 06:38:49;;;;;;;13.90;12.47;;;18.60;99.90;;;;;;5044775;28;20176;-67
2021/07/21 06:41:15;;;;;;;14.17;11.97;;;18.70;99.90;;;;;;5051251;28;20259;-67
2021/07/21 06:43:42;;;;;;;15.43;10.30;;;18.80;99.90;;;;;;5050824;28;20180;-66
2021/07/21 06:46:08;;;;;;;14.73;10.90;;;18.80;99.90;;;;;;5051296;28;20582;-66
2021/07/21 06:48:33;;;;;;;15.47;11.30;;;18.80;99.90;;;;;;5038942;28;21103;-66
2021/07/21 06:50:59;;;;;;;12.63;11.30;;;18.80;99.90;;;;;;5047885;28;20193;-67
2021/07/21 06:53:29;;;;;;;13.67;12.20;;;18.90;99.90;;;;;;5049915;28;20603;-67
2021/07/21 06:55:56;;;;;;;14.23;11.50;;;18.90;99.90;;;;;;5045528;28;20240;-66
2021/07/21 06:58:21;;;;;;;;;;;18.80;99.90;;;;;;5051165;28;20595;-66
2021/07/21 07:00:47;;;;;;;;;;;18.80;99.90;;;;;;5051259;28;19909;-67
2021/07/21 07:03:12;;;;;;;;;;;18.80;99.90;;;;;;5051275;28;19939;-64
2021/07/21 07:05:37;;;;;;;;;;;18.80;99.90;;;;;;5049495;28;19917;-64
2021/07/21 07:08:03;;;;;;;;;;;18.90;99.90;;;;;;5035968;28;19959;-64
2021/07/21 07:10:28;;;;;;;;;;;19.00;99.90;;;;;;5046214;28;20332;-65
2021/07/21 07:12:54;;;;;;;;;;;19.10;99.90;;;;;;5048058;28;19956;-67
2021/07/21 07:15:20;;;;;;;;;;;19.10;99.90;;;;;;5029823;28;20259;-64
2021/07/21 07:17:46;;;;;;;;;;;19.10;99.90;;;;;;5031731;28;19912;-64
2021/07/21 07:20:11;;;;;;;;;;;19.00;99.90;;;;;;5043543;28;20306;-64
2021/07/21 07:22:37;;;;;;;;;;;19.00;99.90;;;;;;5031079;28;19956;-64
2021/07/21 07:25:03;;;;;;;;;;;19.20;99.90;;;;;;5040747;28;19999;-64
2021/07/21 07:27:29;;;;;;;;;;;19.30;99.90;;;;;;5041583;28;19909;-64
2021/07/21 07:29:54;;;;;;;;;;;19.40;99.90;;;;;;5035462;28;19924;-64
2021/07/21 07:32:20;;;;;;;;;;;19.50;99.90;;;;;;5039304;28;19924;-67
2021/07/21 07:34:48;;;;;;;;;;;19.40;99.90;;;;;;5041070;28;19940;-65
2021/07/21 07:37:14;;;;;;;;;;;19.40;99.90;;;;;;5031334;28;20415;-64
2021/07/21 07:39:40;;;;;;;;;;;19.50;99.90;;;;;;5030902;28;20252;-66
2021/07/21 07:42:05;;;;;;;;;;;19.50;99.90;;;;;;5036601;28;20391;-65
2021/07/21 07:44:31;;;;;;;;;;;19.50;99.90;;;;;;5048174;28;19927;-65
2021/07/21 07:46:56;;;;;;;;;;;19.50;99.90;;;;;;5039425;28;19971;-65
2021/07/21 07:49:22;;;;;;;;;;;19.50;99.90;;;;;;5040006;28;20314;-65
2021/07/21 07:51:47;;;;;;;;;;;19.40;99.90;;;;;;5038668;28;19915;-65
2021/07/21 07:54:13;;;;;;;;;;;19.40;99.90;;;;;;5031896;28;19920;-68
2021/07/21 07:56:38;;;;;;;;;;;19.40;99.90;;;;;;5037923;28;19936;-65
2021/07/21 07:59:04;;;;;;;;;;;19.50;99.90;;;;;;5040090;28;20399;-65
2021/07/21 08:01:29;;;;;;;;;;;19.50;99.90;;;;;;5049854;28;19963;-66
2021/07/21 08:03:55;;;;;;;;;;;19.60;99.90;;;;;;5047605;28;19904;-64
2021/07/21 08:06:20;;;;;;;;;;;19.60;99.90;;;;;;5047891;28;19968;-66
2021/07/21 08:08:46;;;;;;;;;;;19.70;99.90;;;;;;5051035;28;19909;-64
2021/07/21 08:11:12;;;;;;;;;;;19.80;99.90;;;;;;5047206;28;20300;-65
2021/07/21 08:13:39;;;;;;;;;;;19.70;99.90;;;;;;5034247;28;19917;-64
2021/07/21 08:16:04;;;;;;;;;;;19.60;99.90;;;;;;5017921;28;19905;-64
2021/07/21 08:18:30;;;;;;;;;;;19.60;99.90;;;;;;5044563;28;20344;-64
2021/07/21 08:20:55;;;;;;;;;;;19.60;99.90;;;;;;5048594;28;19913;-64
2021/07/21 08:23:21;;;;;;;;;;;19.40;99.90;;;;;;5028016;28;20396;-64
2021/07/21 08:25:46;;;;;;;;;;;19.30;99.90;;;;;;5045025;28;19916;-64
2021/07/21 08:28:14;;;;;;;;;;;19.40;99.90;;;;;;5036094;28;19928;-65
2021/07/21 08:30:40;;;;;;;;;;;19.40;99.90;;;;;;5049525;28;19951;-64
2021/07/21 08:33:06;;;;;;;;;;;19.30;99.90;;;;;;5027140;28;20043;-65
2021/07/21 08:35:31;;;;;;;;;;;19.40;99.90;;;;;;5049857;28;20286;-64
2021/07/21 08:37:57;;;;;;;;;;;19.40;99.90;;;;;;5047166;28;19917;-65
2021/07/21 08:40:23;;;;;;;;;;;19.50;99.90;;;;;;5049900;28;20414;-64
2021/07/21 08:42:49;;;;;;;;;;;19.60;99.90;;;;;;5054262;28;20377;-63
2021/07/21 08:45:15;;;;;;;;;;;19.60;99.90;;;;;;5053504;28;19913;-65
2021/07/21 08:47:41;;;;;;;;;;;19.70;99.90;;;;;;5051120;28;19967;-64
2021/07/21 08:50:07;;;;;;;;;;;19.70;99.90;;;;;;5044835;28;19948;-65
2021/07/21 08:52:33;;;;;;;;;;;19.70;99.90;;;;;;5050436;28;19915;-65
2021/07/21 08:55:00;;;;;;;;;;;19.70;99.90;;;;;;5031960;28;19913;-64
2021/07/21 08:57:28;;;;;;;;;;;19.60;99.90;;;;;;5026404;28;19915;-64
2021/07/21 08:59:55;;;;;;;;;;;19.60;99.90;;;;;;5051243;28;20208;-64
2021/07/21 09:02:21;;;;;;;;;;;19.60;99.90;;;;;;5042919;28;19908;-64
2021/07/21 09:04:46;;;;;;;;;;;19.60;99.90;;;;;;5051526;28;19912;-64
2021/07/21 09:07:12;;;;;;;;;;;19.70;99.90;;;;;;5042418;28;20348;-64
2021/07/21 09:09:37;;;;;;;;;;;19.80;99.90;;;;;;5050774;28;20377;-65
2021/07/21 09:12:06;;;;;;;;;;;19.80;99.90;;;;;;5048119;28;20283;-63
2021/07/21 09:14:31;;;;;;;;;;;19.80;99.90;;;;;;5045964;28;19915;-64
2021/07/21 09:17:10;;;;;;;;;;;20.00;99.90;;;;;;5051726;28;19905;-63
2021/07/21 09:19:37;;;;;;;;;;;20.20;99.90;;;;;;5053707;28;19909;-65
2021/07/21 09:22:11;;;;;;;;;;;20.30;99.90;;;;;;5035428;28;19909;-64
2021/07/21 09:24:36;;;;;;;;;;;20.50;99.90;;;;;;5053730;28;19908;-64
2021/07/21 09:27:02;;;;;;;;;;;20.60;99.90;;;;;;5034305;28;20392;-67
2021/07/21 09:29:27;;;;;;;;;;;20.60;99.90;;;;;;5050893;28;20361;-65
2021/07/21 09:31:57;;;;;;;;;;;20.70;99.90;;;;;;5046735;28;19991;-64
2021/07/21 09:34:25;;;;;;;;;;;20.60;99.90;;;;;;5048448;28;19993;-64
2021/07/21 09:37:07;;;;;;;;;;;20.60;99.90;;;;;;5047933;28;19909;-64
2021/07/21 09:39:38;;;;;;;;;;;20.40;99.90;;;;;;5038116;28;19986;-64
2021/07/21 09:42:04;;;;;;;;;;;20.30;99.90;;;;;;5051131;28;19915;-64
2021/07/21 09:44:36;;;;;;;;;;;20.40;99.90;;;;;;5031502;28;19940;-65
2021/07/21 09:47:11;;;;;;;;;;;20.40;99.90;;;;;;5052665;28;19908;-64
2021/07/21 09:49:37;;;;;;;;;;;20.20;99.90;;;;;;5034373;28;20008;-64
2021/07/21 09:52:32;;;;;;;;;;;20.10;99.90;;;;;;5051587;28;19967;-64
2021/07/21 09:55:11;;;;;;;;;;;20.10;99.90;;;;;;5022554;28;20435;-65
2021/07/21 09:57:37;;;;;;;;;;;19.90;99.90;;;;;;5049484;28;19987;-64
2021/07/21 10:00:16;;;;;;;;;;;19.90;99.90;;;;;;5053400;28;19927;-64
2021/07/21 10:02:41;;;;;;;;;;;19.80;99.90;;;;;;5043117;28;19940;-65
2021/07/21 10:05:07;;;;;;;;;;;19.90;99.90;;;;;;5050285;28;19960;-64
2021/07/21 10:07:48;;;;;;;;;;;19.80;99.90;;;;;;5053076;28;19909;-64
2021/07/21 10:10:23;;;;;;;;;;;19.80;99.90;;;;;;5035067;28;20224;-64
2021/07/21 10:12:59;;;;;;;;;;;19.80;99.90;;;;;;5051413;28;19905;-64
2021/07/21 10:15:25;;;;;;;;;;;20.00;99.90;;;;;;5033805;28;19913;-64
2021/07/21 10:18:28;;;;;;;;;;;20.10;99.90;;;;;;5052413;28;20348;-64
2021/07/21 10:20:53;;;;;;;;;;;20.20;99.90;;;;;;4967010;28;20354;-64
2021/07/21 10:23:19;;;;;;;;;;;20.30;99.90;;;;;;5030815;28;19923;-64
2021/07/21 10:25:45;;;;;;;;;;;20.40;99.90;;;;;;5050828;28;19942;-64
2021/07/21 10:28:10;;;;;;;;;;;20.50;99.90;;;;;;5052547;28;19916;-64
2021/07/21 10:30:37;;;;;;;;;;;20.50;99.90;;;;;;5039409;28;19905;-64
2021/07/21 10:33:03;;;;;;;;;;;20.60;99.90;;;;;;5044676;28;19905;-64
2021/07/21 10:35:29;;;;;;;;;;;20.80;99.90;;;;;;5049311;28;20031;-64
2021/07/21 10:37:55;;;;;;;;;;;21.00;99.90;;;;;;5051739;28;19905;-63
2021/07/21 10:40:22;;;;;;;;;;;21.10;99.90;;;;;;5045780;28;20448;-64
2021/07/21 10:42:49;;;;;;;;;;;21.00;99.90;;;;;;5033059;28;20000;-63
2021/07/21 10:45:16;;;;;;;;;;;21.00;99.90;;;;;;5051893;28;19930;-64
2021/07/21 10:47:48;;;;;;;;;;;21.10;99.90;;;;;;5048691;28;19905;-64
2021/07/21 10:51:00;;;;;;;;;;;21.20;99.90;;;;;;5047247;28;20376;-64
2021/07/21 10:59:12;;;;;;;;;;;21.10;99.90;;;;;;5046997;28;19950;-69
2021/07/21 11:01:47;;;;;;;;;;;21.20;99.90;;;;;;5037119;28;20019;-68
2021/07/21 11:04:13;;;;;;;;;;;21.30;99.90;;;;;;5057774;28;19908;-68
2021/07/21 11:06:42;;;;;;;;;;;21.40;99.90;;;;;;5031314;28;19924;-69
2021/07/21 11:09:18;;;;;;;;;;;21.40;99.90;;;;;;5038454;28;19920;-68
2021/07/21 11:11:45;;;;;;;;;;;21.60;99.90;;;;;;5020996;28;19940;-68
2021/07/21 11:14:15;;;;;;;;;;;21.70;99.90;;;;;;5032510;28;19909;-69
2021/07/21 11:16:43;;;;;;;;;;;21.80;99.90;;;;;;5032378;28;19963;-68
2021/07/21 11:19:23;;;;;;;;;;;21.90;99.90;;;;;;5025089;28;19909;-69
2021/07/21 11:21:53;;;;;;;;;;;22.00;99.90;;;;;;5029030;28;19909;-69
2021/07/21 11:24:18;;;;;;;;;;;21.90;99.90;;;;;;5030809;28;19962;-69
2021/07/21 11:26:44;;;;;;;;;;;22.00;99.90;;;;;;5034312;28;20015;-68
2021/07/21 11:29:22;;;;;;;;;;;21.90;99.90;;;;;;5026956;28;19931;-68
2021/07/21 11:31:50;;;;;;;;;;;21.90;99.90;;;;;;5035754;28;19904;-69
2021/07/21 11:34:26;;;;;;;;;;;21.90;99.90;;;;;;5033889;28;19965;-69
2021/07/21 11:36:56;;;;;;;;;;;21.80;99.90;;;;;;5031268;28;19912;-68
2021/07/21 11:39:42;;;;;;;;;;;21.90;99.90;;;;;;5028493;28;19909;-68
2021/07/21 11:42:08;;;;;;;;;;;21.90;99.90;;;;;;5030807;28;20039;-68
2021/07/21 11:44:37;;;;;;;;;;;22.00;99.90;;;;;;5033933;28;19956;-68
2021/07/21 11:47:03;;;;;;;;;;;22.10;99.90;;;;;;5030844;28;19908;-69
2021/07/21 11:49:31;;;;;;;;;;;22.00;99.90;;;;;;5027450;28;19913;-69
2021/07/21 11:51:57;;;;;;;;;;;21.90;99.90;;;;;;5032025;28;20353;-68
2021/07/21 11:54:24;;;;;;;;;;;22.00;99.90;;;;;;5030884;28;19963;-69
2021/07/21 11:56:50;;;;;;;;;;;22.00;99.90;;;;;;5015775;28;19913;-68
2021/07/21 11:59:24;;;;;;;;;;;21.80;99.90;;;;;;5026902;28;19916;-68
2021/07/21 12:02:00;;;;;;;;;;;22.00;99.90;;;;;;5031763;28;20383;-68
2021/07/21 12:04:29;;;;;;;;;;;22.10;99.90;;;;;;5030541;28;19919;-69
2021/07/21 12:06:54;;;;;;;;;;;22.40;99.90;;;;;;5028746;28;19956;-68
2021/07/21 12:09:27;;;;;;;;;;;22.60;99.90;;;;;;5031670;28;19928;-68
2021/07/21 12:11:53;;;;;;;;;;;22.60;99.90;;;;;;5031208;28;20047;-68
2021/07/21 12:14:21;;;;;;;;;;;22.70;99.90;;;;;;5026538;28;19941;-68
2021/07/21 12:16:46;;;;;;;;;;;22.90;99.90;;;;;;5012340;28;19948;-68
2021/07/21 12:19:12;;;;;;;;;;;22.90;99.90;;;;;;5031130;28;19905;-69
2021/07/21 12:21:37;;;;;;;;;;;23.10;99.90;;;;;;5024308;28;19959;-69
2021/07/21 12:24:04;;;;;;;;;;;23.10;99.90;;;;;;5025077;28;19905;-69
2021/07/21 12:26:49;;;;;;;;;;;23.30;99.90;;;;;;5026697;28;19912;-68
2021/07/21 12:29:24;;;;;;;;;;;23.40;99.90;;;;;;5031105;28;19905;-69
2021/07/21 12:32:00;;;;;;;;;;;23.40;99.90;;;;;;5023329;28;20373;-68
2021/07/21 12:34:25;;;;;;;;;;;23.60;99.90;;;;;;5033265;28;19926;-69
2021/07/21 12:36:51;;;;;;;;;;;23.50;99.90;;;;;;5033312;28;20271;-69
2021/07/21 12:39:23;;;;;;;;;;;23.50;99.90;;;;;;5027834;28;19909;-69
2021/07/21 12:41:48;;;;;;;;;;;23.50;99.90;;;;;;5031321;28;19905;-69
2021/07/21 12:44:18;;;;;;;;;;;23.60;99.90;;;;;;5028620;28;19962;-69
2021/07/21 12:46:44;;;;;;;;;;;23.60;99.90;;;;;;5029205;28;19913;-68
2021/07/21 12:49:10;;;;;;;;;;;23.60;99.90;;;;;;5030952;28;20365;-69
2021/07/21 12:51:36;;;;;;;;;;;23.70;99.90;;;;;;5032220;28;19909;-69
2021/07/21 12:54:02;;;;;;;;;;;23.90;99.90;;;;;;5035129;28;19912;-69
2021/07/21 12:56:27;;;;;;;;;;;23.80;99.90;;;;;;5032066;28;20374;-69
2021/07/21 12:59:06;;;;;;;;;;;23.80;99.90;;;;;;5039439;28;19909;-69
2021/07/21 13:01:31;;;;;;;;;;;23.80;99.90;;;;;;5033928;28;20000;-68
2021/07/21 13:03:58;;;;;;;;;;;23.70;99.90;;;;;;5020928;28;19940;-69
2021/07/21 13:06:23;;;;;;;;;;;23.80;99.90;;;;;;5027966;28;20360;-68
2021/07/21 13:08:49;;;;;;;;;;;23.90;99.90;;;;;;5034235;28;20014;-68
2021/07/21 13:11:15;;;;;;;;;;;24.20;99.90;;;;;;5017117;28;19959;-68
2021/07/21 13:13:44;;;;;;;;;;;24.60;99.90;;;;;;5014830;28;19913;-68
2021/07/21 13:16:11;;;;;;;;;;;24.60;99.90;;;;;;5034656;28;19912;-68
2021/07/21 13:18:38;;;;;;;;;;;24.80;99.90;;;;;;5034948;28;19905;-68
2021/07/21 13:21:22;;;;;;;;;;;24.90;99.90;;;;;;5025694;28;19955;-69
2021/07/21 13:23:51;;;;;;;;;;;25.00;99.90;;;;;;5025734;28;20313;-68
2021/07/21 13:26:18;;;;;;;;;;;25.10;99.90;;;;;;5033690;28;19943;-68
2021/07/21 13:28:45;;;;;;;;;;;25.20;99.90;;;;;;5030801;28;19909;-69
2021/07/21 13:31:15;;;;;;;;;;;25.20;99.90;;;;;;5050099;28;19909;-68
2021/07/21 13:33:41;;;;;;;;;;;25.00;99.90;;;;;;5037377;28;19909;-68
2021/07/21 13:36:09;;;;;;;;;;;24.80;99.90;;;;;;5029413;28;19905;-68
2021/07/21 13:38:35;;;;;;;;;;;24.60;99.90;;;;;;5024639;28;19909;-68
2021/07/21 13:41:03;;;;;;;;;;;24.50;99.90;;;;;;5033586;28;19908;-67
2021/07/21 13:43:28;;;;;;;;;;;24.30;99.90;;;;;;5030224;28;19916;-68
2021/07/21 13:45:54;;;;;;;;;;;24.20;99.90;;;;;;5025138;28;20280;-67
2021/07/21 13:48:24;;;;;;;;;;;24.20;99.90;;;;;;5034104;28;20288;-68
2021/07/21 13:51:06;;;;;;;;;;;24.20;99.90;;;;;;5030953;28;20304;-69
2021/07/21 13:53:32;;;;;;;;;;;24.00;99.90;;;;;;5038578;28;19925;-68
2021/07/21 13:55:57;;;;;;;;;;;23.90;99.90;;;;;;5033701;28;20277;-68
2021/07/21 13:58:22;;;;;;;;;;;23.80;99.90;;;;;;5032502;28;20347;-68
2021/07/21 14:00:48;;;;;;;;;;;23.80;99.90;;;;;;5031679;28;19905;-68
2021/07/21 14:03:19;;;;;;;;;;;23.70;99.90;;;;;;5036528;28;19909;-68
2021/07/21 14:05:45;;;;;;;;;;;23.80;99.90;;;;;;5021310;28;19921;-68
2021/07/21 14:08:10;;;;;;;;;;;23.60;99.90;;;;;;5015563;28;19909;-68
2021/07/21 14:10:35;;;;;;;;;;;23.80;99.90;;;;;;5033963;28;19909;-68
2021/07/21 14:13:01;;;;;;;;;;;24.10;99.90;;;;;;5040624;28;19986;-68
2021/07/21 14:15:26;;;;;;;;;;;24.50;99.90;;;;;;5024974;28;20008;-68
2021/07/21 14:17:52;;;;;;;;;;;24.90;99.90;;;;;;5028821;28;19909;-68
2021/07/21 14:20:17;;;;;;;;;;;25.10;99.90;;;;;;5033944;28;20384;-70
2021/07/21 14:22:43;;;;;;;;;;;25.30;99.90;;;;;;5041997;28;20242;-67
2021/07/21 14:25:09;;;;;;;;;;;25.20;99.90;;;;;;5032298;28;19970;-70
2021/07/21 14:27:35;;;;;;;;;;;25.30;99.90;;;;;;5025305;28;19917;-71